sensor_id;sensor_type;location;lat;lon;timestamp;P1;durP1;ratioP1;P2;durP2;ratioP2
10201;SDS011;5143;42.584;23.164;2023-09-18T00:00:49;21.30;;;10.40;;
10201;SDS011;5143;42.584;23.164;2023-09-18T00:03:16;15.87;;;10.70;;
10201;SDS011;5143;42.584;23.164;2023-09-18T00:05:44;14.83;;;10.53;;
10201;SDS011;5143;42.584;23.164;2023-09-18T00:08:11;18.17;;;10.57;;
10201;SDS011;5143;42.584;23.164;2023-09-18T00:10:37;13.27;;;10.67;;
10201;SDS011;5143;42.584;23.164;2023-09-18T00:13:04;13.53;;;10.27;;
10201;SDS011;5143;42.584;23.164;2023-09-18T00:15:32;16.67;;;10.63;;
10201;SDS011;5143;42.584;23.164;2023-09-18T00:17:59;16.47;;;10.40;;
10201;SDS011;5143;42.584;23.164;2023-09-18T00:20:26;16.27;;;10.30;;
10201;SDS011;5143;42.584;23.164;2023-09-18T00:22:53;13.93;;;10.93;;
10201;SDS011;5143;42.584;23.164;2023-09-18T00:25:20;14.10;;;9.87;;
10201;SDS011;5143;42.584;23.164;2023-09-18T00:27:46;14.00;;;9.70;;
10201;SDS011;5143;42.584;23.164;2023-09-18T00:30:13;13.00;;;10.23;;
10201;SDS011;5143;42.584;23.164;2023-09-18T00:32:42;14.37;;;9.27;;
10201;SDS011;5143;42.584;23.164;2023-09-18T00:35:08;13.30;;;10.67;;
10201;SDS011;5143;42.584;23.164;2023-09-18T00:37:35;17.90;;;10.50;;
10201;SDS011;5143;42.584;23.164;2023-09-18T00:40:05;13.00;;;10.20;;
10201;SDS011;5143;42.584;23.164;2023-09-18T00:42:32;12.27;;;9.70;;
10201;SDS011;5143;42.584;23.164;2023-09-18T00:44:59;12.07;;;9.43;;
10201;SDS011;5143;42.584;23.164;2023-09-18T00:47:26;13.93;;;9.97;;
10201;SDS011;5143;42.584;23.164;2023-09-18T00:49:54;13.30;;;9.53;;
10201;SDS011;5143;42.584;23.164;2023-09-18T00:52:22;15.53;;;9.70;;
10201;SDS011;5143;42.584;23.164;2023-09-18T00:54:51;16.23;;;10.50;;
10201;SDS011;5143;42.584;23.164;2023-09-18T00:57:18;11.27;;;9.83;;
10201;SDS011;5143;42.584;23.164;2023-09-18T00:59:46;14.93;;;9.73;;
10201;SDS011;5143;42.584;23.164;2023-09-18T01:02:13;13.83;;;9.53;;
10201;SDS011;5143;42.584;23.164;2023-09-18T01:04:40;15.30;;;10.03;;
10201;SDS011;5143;42.584;23.164;2023-09-18T01:07:10;14.53;;;9.57;;
10201;SDS011;5143;42.584;23.164;2023-09-18T01:09:37;15.13;;;9.60;;
10201;SDS011;5143;42.584;23.164;2023-09-18T01:12:06;13.17;;;9.97;;
10201;SDS011;5143;42.584;23.164;2023-09-18T01:14:40;13.93;;;9.53;;
10201;SDS011;5143;42.584;23.164;2023-09-18T01:17:10;11.63;;;9.67;;
10201;SDS011;5143;42.584;23.164;2023-09-18T01:19:39;13.97;;;9.50;;
10201;SDS011;5143;42.584;23.164;2023-09-18T01:22:07;11.87;;;9.20;;
10201;SDS011;5143;42.584;23.164;2023-09-18T01:24:37;13.17;;;8.83;;
10201;SDS011;5143;42.584;23.164;2023-09-18T01:27:06;11.30;;;9.07;;
10201;SDS011;5143;42.584;23.164;2023-09-18T01:29:33;12.67;;;9.60;;
10201;SDS011;5143;42.584;23.164;2023-09-18T01:32:00;12.40;;;9.13;;
10201;SDS011;5143;42.584;23.164;2023-09-18T01:34:28;14.43;;;10.07;;
10201;SDS011;5143;42.584;23.164;2023-09-18T01:36:58;15.30;;;9.83;;
10201;SDS011;5143;42.584;23.164;2023-09-18T01:39:27;14.97;;;10.67;;
10201;SDS011;5143;42.584;23.164;2023-09-18T01:41:58;13.30;;;10.40;;
10201;SDS011;5143;42.584;23.164;2023-09-18T01:44:26;12.33;;;10.17;;
10201;SDS011;5143;42.584;23.164;2023-09-18T01:46:53;14.23;;;10.07;;
10201;SDS011;5143;42.584;23.164;2023-09-18T01:49:28;15.03;;;10.47;;
10201;SDS011;5143;42.584;23.164;2023-09-18T01:51:56;12.40;;;9.40;;
10201;SDS011;5143;42.584;23.164;2023-09-18T01:54:23;12.77;;;9.73;;
10201;SDS011;5143;42.584;23.164;2023-09-18T01:56:50;11.80;;;9.73;;
10201;SDS011;5143;42.584;23.164;2023-09-18T01:59:18;13.93;;;10.57;;
10201;SDS011;5143;42.584;23.164;2023-09-18T02:01:45;13.60;;;10.10;;
10201;SDS011;5143;42.584;23.164;2023-09-18T02:04:12;13.63;;;9.73;;
10201;SDS011;5143;42.584;23.164;2023-09-18T02:06:39;13.70;;;9.17;;
10201;SDS011;5143;42.584;23.164;2023-09-18T02:09:06;12.50;;;9.60;;
10201;SDS011;5143;42.584;23.164;2023-09-18T02:11:34;13.43;;;10.00;;
10201;SDS011;5143;42.584;23.164;2023-09-18T02:14:03;14.87;;;9.90;;
10201;SDS011;5143;42.584;23.164;2023-09-18T02:16:33;10.57;;;9.47;;
10201;SDS011;5143;42.584;23.164;2023-09-18T02:19:01;10.10;;;9.10;;
10201;SDS011;5143;42.584;23.164;2023-09-18T02:21:28;19.10;;;9.43;;
10201;SDS011;5143;42.584;23.164;2023-09-18T02:23:55;13.83;;;8.90;;
10201;SDS011;5143;42.584;23.164;2023-09-18T02:26:22;16.90;;;10.23;;
10201;SDS011;5143;42.584;23.164;2023-09-18T02:28:51;14.03;;;11.03;;
10201;SDS011;5143;42.584;23.164;2023-09-18T02:31:18;14.23;;;11.10;;
10201;SDS011;5143;42.584;23.164;2023-09-18T02:33:46;13.10;;;10.80;;
10201;SDS011;5143;42.584;23.164;2023-09-18T02:36:13;19.00;;;11.13;;
10201;SDS011;5143;42.584;23.164;2023-09-18T02:38:40;11.47;;;9.60;;
10201;SDS011;5143;42.584;23.164;2023-09-18T02:41:07;15.07;;;10.37;;
10201;SDS011;5143;42.584;23.164;2023-09-18T02:43:33;11.80;;;9.00;;
10201;SDS011;5143;42.584;23.164;2023-09-18T02:46:00;13.40;;;9.17;;
10201;SDS011;5143;42.584;23.164;2023-09-18T02:48:27;10.43;;;9.00;;
10201;SDS011;5143;42.584;23.164;2023-09-18T02:50:55;12.97;;;8.83;;
10201;SDS011;5143;42.584;23.164;2023-09-18T02:53:22;14.63;;;9.97;;
10201;SDS011;5143;42.584;23.164;2023-09-18T02:55:51;11.53;;;9.40;;
10201;SDS011;5143;42.584;23.164;2023-09-18T02:58:19;11.53;;;9.47;;
10201;SDS011;5143;42.584;23.164;2023-09-18T03:00:47;17.93;;;10.93;;
10201;SDS011;5143;42.584;23.164;2023-09-18T03:03:16;11.23;;;9.57;;
10201;SDS011;5143;42.584;23.164;2023-09-18T03:05:43;17.57;;;10.10;;
10201;SDS011;5143;42.584;23.164;2023-09-18T03:08:14;13.40;;;10.43;;
10201;SDS011;5143;42.584;23.164;2023-09-18T03:10:42;12.37;;;9.40;;
10201;SDS011;5143;42.584;23.164;2023-09-18T03:13:10;16.83;;;11.30;;
10201;SDS011;5143;42.584;23.164;2023-09-18T03:15:40;14.33;;;10.10;;
10201;SDS011;5143;42.584;23.164;2023-09-18T03:18:10;12.33;;;9.70;;
10201;SDS011;5143;42.584;23.164;2023-09-18T03:20:37;15.83;;;10.37;;
10201;SDS011;5143;42.584;23.164;2023-09-18T03:23:03;12.57;;;9.37;;
10201;SDS011;5143;42.584;23.164;2023-09-18T03:25:33;17.90;;;10.73;;
10201;SDS011;5143;42.584;23.164;2023-09-18T03:27:59;16.43;;;13.03;;
10201;SDS011;5143;42.584;23.164;2023-09-18T03:30:26;16.57;;;9.87;;
10201;SDS011;5143;42.584;23.164;2023-09-18T03:32:53;11.60;;;9.23;;
10201;SDS011;5143;42.584;23.164;2023-09-18T03:35:20;13.77;;;9.63;;
10201;SDS011;5143;42.584;23.164;2023-09-18T03:37:47;13.83;;;9.53;;
10201;SDS011;5143;42.584;23.164;2023-09-18T03:40:14;12.03;;;9.60;;
10201;SDS011;5143;42.584;23.164;2023-09-18T03:42:43;13.93;;;9.83;;
10201;SDS011;5143;42.584;23.164;2023-09-18T03:45:09;12.87;;;9.00;;
10201;SDS011;5143;42.584;23.164;2023-09-18T03:47:37;10.97;;;8.77;;
10201;SDS011;5143;42.584;23.164;2023-09-18T03:50:05;16.10;;;9.10;;
10201;SDS011;5143;42.584;23.164;2023-09-18T03:52:33;11.97;;;9.50;;
10201;SDS011;5143;42.584;23.164;2023-09-18T03:55:00;24.53;;;9.63;;
10201;SDS011;5143;42.584;23.164;2023-09-18T03:57:27;11.67;;;8.97;;
10201;SDS011;5143;42.584;23.164;2023-09-18T03:59:55;14.07;;;10.10;;
10201;SDS011;5143;42.584;23.164;2023-09-18T04:02:21;14.43;;;10.53;;
10201;SDS011;5143;42.584;23.164;2023-09-18T04:04:50;13.97;;;10.90;;
10201;SDS011;5143;42.584;23.164;2023-09-18T04:07:16;16.00;;;10.17;;
10201;SDS011;5143;42.584;23.164;2023-09-18T04:09:44;14.10;;;9.47;;
10201;SDS011;5143;42.584;23.164;2023-09-18T04:12:11;16.47;;;9.73;;
10201;SDS011;5143;42.584;23.164;2023-09-18T04:14:38;14.37;;;10.17;;
10201;SDS011;5143;42.584;23.164;2023-09-18T04:17:06;14.03;;;9.57;;
10201;SDS011;5143;42.584;23.164;2023-09-18T04:19:33;14.63;;;9.93;;
10201;SDS011;5143;42.584;23.164;2023-09-18T04:22:00;17.97;;;10.77;;
10201;SDS011;5143;42.584;23.164;2023-09-18T04:24:26;19.90;;;11.63;;
10201;SDS011;5143;42.584;23.164;2023-09-18T04:26:53;15.17;;;10.30;;
10201;SDS011;5143;42.584;23.164;2023-09-18T04:29:20;13.50;;;10.73;;
10201;SDS011;5143;42.584;23.164;2023-09-18T04:31:47;22.07;;;11.70;;
10201;SDS011;5143;42.584;23.164;2023-09-18T04:34:15;16.57;;;12.70;;
10201;SDS011;5143;42.584;23.164;2023-09-18T04:36:42;19.27;;;12.13;;
10201;SDS011;5143;42.584;23.164;2023-09-18T04:39:09;21.43;;;13.17;;
10201;SDS011;5143;42.584;23.164;2023-09-18T04:41:36;20.53;;;13.10;;
10201;SDS011;5143;42.584;23.164;2023-09-18T04:44:03;22.00;;;13.30;;
10201;SDS011;5143;42.584;23.164;2023-09-18T04:46:30;22.47;;;14.20;;
10201;SDS011;5143;42.584;23.164;2023-09-18T04:48:57;20.80;;;14.30;;
10201;SDS011;5143;42.584;23.164;2023-09-18T04:51:25;25.23;;;13.37;;
10201;SDS011;5143;42.584;23.164;2023-09-18T04:53:52;25.77;;;14.87;;
10201;SDS011;5143;42.584;23.164;2023-09-18T04:56:20;24.73;;;14.93;;
10201;SDS011;5143;42.584;23.164;2023-09-18T04:58:46;27.63;;;14.60;;
10201;SDS011;5143;42.584;23.164;2023-09-18T05:01:13;28.53;;;14.37;;
10201;SDS011;5143;42.584;23.164;2023-09-18T05:03:40;24.80;;;13.30;;
10201;SDS011;5143;42.584;23.164;2023-09-18T05:06:07;24.10;;;12.57;;
10201;SDS011;5143;42.584;23.164;2023-09-18T05:08:35;34.13;;;13.07;;
10201;SDS011;5143;42.584;23.164;2023-09-18T05:11:02;28.47;;;11.80;;
10201;SDS011;5143;42.584;23.164;2023-09-18T05:13:30;37.47;;;12.03;;
10201;SDS011;5143;42.584;23.164;2023-09-18T05:15:57;33.20;;;10.97;;
10201;SDS011;5143;42.584;23.164;2023-09-18T05:18:25;30.70;;;13.00;;
10201;SDS011;5143;42.584;23.164;2023-09-18T05:20:52;25.80;;;11.57;;
10201;SDS011;5143;42.584;23.164;2023-09-18T05:23:19;26.57;;;11.90;;
10201;SDS011;5143;42.584;23.164;2023-09-18T05:25:47;18.67;;;12.60;;
10201;SDS011;5143;42.584;23.164;2023-09-18T05:28:14;15.63;;;12.00;;
10201;SDS011;5143;42.584;23.164;2023-09-18T05:30:41;14.70;;;12.00;;
10201;SDS011;5143;42.584;23.164;2023-09-18T05:33:07;18.23;;;12.47;;
10201;SDS011;5143;42.584;23.164;2023-09-18T05:35:35;14.60;;;11.53;;
10201;SDS011;5143;42.584;23.164;2023-09-18T05:38:03;19.93;;;11.80;;
10201;SDS011;5143;42.584;23.164;2023-09-18T05:40:30;14.20;;;10.90;;
10201;SDS011;5143;42.584;23.164;2023-09-18T05:42:58;13.80;;;10.97;;
10201;SDS011;5143;42.584;23.164;2023-09-18T05:45:25;16.63;;;11.20;;
10201;SDS011;5143;42.584;23.164;2023-09-18T05:47:52;13.23;;;10.70;;
10201;SDS011;5143;42.584;23.164;2023-09-18T05:50:19;13.80;;;10.67;;
10201;SDS011;5143;42.584;23.164;2023-09-18T05:52:46;14.00;;;11.13;;
10201;SDS011;5143;42.584;23.164;2023-09-18T05:55:14;15.43;;;12.13;;
10201;SDS011;5143;42.584;23.164;2023-09-18T05:57:41;13.43;;;10.07;;
10201;SDS011;5143;42.584;23.164;2023-09-18T06:00:10;10.00;;;8.23;;
10201;SDS011;5143;42.584;23.164;2023-09-18T06:02:38;10.50;;;7.17;;
10201;SDS011;5143;42.584;23.164;2023-09-18T06:05:05;8.90;;;7.03;;
10201;SDS011;5143;42.584;23.164;2023-09-18T06:07:36;8.90;;;6.93;;
10201;SDS011;5143;42.584;23.164;2023-09-18T06:10:03;9.20;;;6.53;;
10201;SDS011;5143;42.584;23.164;2023-09-18T06:12:31;7.70;;;6.40;;
10201;SDS011;5143;42.584;23.164;2023-09-18T06:14:57;9.67;;;6.70;;
10201;SDS011;5143;42.584;23.164;2023-09-18T06:17:26;7.27;;;6.37;;
10201;SDS011;5143;42.584;23.164;2023-09-18T06:19:52;11.47;;;7.73;;
10201;SDS011;5143;42.584;23.164;2023-09-18T06:22:20;8.73;;;7.33;;
10201;SDS011;5143;42.584;23.164;2023-09-18T06:24:47;12.33;;;8.07;;
10201;SDS011;5143;42.584;23.164;2023-09-18T06:27:14;13.77;;;9.27;;
10201;SDS011;5143;42.584;23.164;2023-09-18T06:29:40;10.23;;;8.67;;
10201;SDS011;5143;42.584;23.164;2023-09-18T06:32:08;14.70;;;10.90;;
10201;SDS011;5143;42.584;23.164;2023-09-18T06:34:36;11.47;;;9.50;;
10201;SDS011;5143;42.584;23.164;2023-09-18T06:37:03;12.67;;;9.47;;
10201;SDS011;5143;42.584;23.164;2023-09-18T06:39:32;10.57;;;9.47;;
10201;SDS011;5143;42.584;23.164;2023-09-18T06:41:59;12.63;;;10.70;;
10201;SDS011;5143;42.584;23.164;2023-09-18T06:44:26;10.80;;;9.70;;
10201;SDS011;5143;42.584;23.164;2023-09-18T06:46:52;12.43;;;11.03;;
10201;SDS011;5143;42.584;23.164;2023-09-18T06:49:19;12.67;;;10.70;;
10201;SDS011;5143;42.584;23.164;2023-09-18T06:51:47;13.90;;;11.70;;
10201;SDS011;5143;42.584;23.164;2023-09-18T06:54:14;16.03;;;12.37;;
10201;SDS011;5143;42.584;23.164;2023-09-18T06:56:41;16.53;;;11.27;;
10201;SDS011;5143;42.584;23.164;2023-09-18T06:59:09;15.23;;;12.90;;
10201;SDS011;5143;42.584;23.164;2023-09-18T07:01:37;14.10;;;11.97;;
10201;SDS011;5143;42.584;23.164;2023-09-18T07:04:04;15.63;;;12.43;;
10201;SDS011;5143;42.584;23.164;2023-09-18T07:06:31;13.23;;;11.83;;
10201;SDS011;5143;42.584;23.164;2023-09-18T07:08:59;15.23;;;11.37;;
10201;SDS011;5143;42.584;23.164;2023-09-18T07:11:28;13.73;;;12.10;;
10201;SDS011;5143;42.584;23.164;2023-09-18T07:13:55;13.80;;;12.30;;
10201;SDS011;5143;42.584;23.164;2023-09-18T07:16:21;18.50;;;12.47;;
10201;SDS011;5143;42.584;23.164;2023-09-18T07:18:48;14.17;;;12.20;;
10201;SDS011;5143;42.584;23.164;2023-09-18T07:21:15;14.20;;;11.30;;
10201;SDS011;5143;42.584;23.164;2023-09-18T07:23:41;16.60;;;12.70;;
10201;SDS011;5143;42.584;23.164;2023-09-18T07:26:12;13.77;;;12.37;;
10201;SDS011;5143;42.584;23.164;2023-09-18T07:28:38;15.67;;;12.03;;
10201;SDS011;5143;42.584;23.164;2023-09-18T07:31:07;14.50;;;11.87;;
10201;SDS011;5143;42.584;23.164;2023-09-18T07:33:37;13.67;;;12.27;;
10201;SDS011;5143;42.584;23.164;2023-09-18T07:36:04;18.37;;;11.83;;
10201;SDS011;5143;42.584;23.164;2023-09-18T07:38:31;13.87;;;12.37;;
10201;SDS011;5143;42.584;23.164;2023-09-18T07:40:58;13.87;;;11.80;;
10201;SDS011;5143;42.584;23.164;2023-09-18T07:43:26;15.00;;;13.40;;
10201;SDS011;5143;42.584;23.164;2023-09-18T07:45:53;16.40;;;12.43;;
10201;SDS011;5143;42.584;23.164;2023-09-18T07:48:21;18.33;;;12.83;;
10201;SDS011;5143;42.584;23.164;2023-09-18T07:50:48;18.27;;;13.43;;
10201;SDS011;5143;42.584;23.164;2023-09-18T07:53:15;16.17;;;11.63;;
10201;SDS011;5143;42.584;23.164;2023-09-18T07:55:42;14.07;;;11.83;;
10201;SDS011;5143;42.584;23.164;2023-09-18T07:58:09;14.07;;;11.80;;
10201;SDS011;5143;42.584;23.164;2023-09-18T08:00:38;16.00;;;13.30;;
10201;SDS011;5143;42.584;23.164;2023-09-18T08:03:05;22.27;;;14.70;;
10201;SDS011;5143;42.584;23.164;2023-09-18T08:05:31;14.57;;;11.43;;
10201;SDS011;5143;42.584;23.164;2023-09-18T08:07:58;14.13;;;12.10;;
10201;SDS011;5143;42.584;23.164;2023-09-18T08:10:25;14.60;;;11.70;;
10201;SDS011;5143;42.584;23.164;2023-09-18T08:12:52;19.63;;;14.83;;
10201;SDS011;5143;42.584;23.164;2023-09-18T08:15:19;18.10;;;12.87;;
10201;SDS011;5143;42.584;23.164;2023-09-18T08:17:48;13.50;;;10.93;;
10201;SDS011;5143;42.584;23.164;2023-09-18T08:20:15;15.97;;;11.43;;
10201;SDS011;5143;42.584;23.164;2023-09-18T08:22:42;13.80;;;11.40;;
10201;SDS011;5143;42.584;23.164;2023-09-18T08:25:09;13.73;;;11.70;;
10201;SDS011;5143;42.584;23.164;2023-09-18T08:27:37;15.90;;;12.13;;
10201;SDS011;5143;42.584;23.164;2023-09-18T08:30:07;12.40;;;11.00;;
10201;SDS011;5143;42.584;23.164;2023-09-18T08:32:35;13.17;;;11.60;;
10201;SDS011;5143;42.584;23.164;2023-09-18T08:35:03;17.00;;;11.70;;
10201;SDS011;5143;42.584;23.164;2023-09-18T08:37:31;15.00;;;11.67;;
10201;SDS011;5143;42.584;23.164;2023-09-18T08:39:58;18.13;;;12.27;;
10201;SDS011;5143;42.584;23.164;2023-09-18T08:42:26;18.03;;;11.57;;
10201;SDS011;5143;42.584;23.164;2023-09-18T08:44:56;13.93;;;12.17;;
10201;SDS011;5143;42.584;23.164;2023-09-18T08:47:25;13.57;;;11.27;;
10201;SDS011;5143;42.584;23.164;2023-09-18T08:49:53;13.00;;;11.67;;
10201;SDS011;5143;42.584;23.164;2023-09-18T08:52:23;13.53;;;11.93;;
10201;SDS011;5143;42.584;23.164;2023-09-18T08:54:51;16.90;;;11.40;;
10201;SDS011;5143;42.584;23.164;2023-09-18T08:57:21;17.47;;;11.20;;
10201;SDS011;5143;42.584;23.164;2023-09-18T08:59:49;14.23;;;11.30;;
10201;SDS011;5143;42.584;23.164;2023-09-18T09:02:18;15.13;;;11.40;;
10201;SDS011;5143;42.584;23.164;2023-09-18T09:04:45;16.67;;;11.73;;
10201;SDS011;5143;42.584;23.164;2023-09-18T09:07:12;15.33;;;11.93;;
10201;SDS011;5143;42.584;23.164;2023-09-18T09:09:40;12.60;;;10.83;;
10201;SDS011;5143;42.584;23.164;2023-09-18T09:12:08;13.77;;;11.43;;
10201;SDS011;5143;42.584;23.164;2023-09-18T09:14:35;15.10;;;12.67;;
10201;SDS011;5143;42.584;23.164;2023-09-18T09:17:01;16.93;;;13.70;;
10201;SDS011;5143;42.584;23.164;2023-09-18T09:19:29;15.57;;;12.40;;
10201;SDS011;5143;42.584;23.164;2023-09-18T09:21:57;16.70;;;12.30;;
10201;SDS011;5143;42.584;23.164;2023-09-18T09:24:39;14.43;;;11.13;;
10201;SDS011;5143;42.584;23.164;2023-09-18T09:27:08;16.07;;;11.30;;
10201;SDS011;5143;42.584;23.164;2023-09-18T09:29:35;16.03;;;10.23;;
10201;SDS011;5143;42.584;23.164;2023-09-18T09:32:12;11.83;;;10.20;;
10201;SDS011;5143;42.584;23.164;2023-09-18T09:34:40;11.40;;;9.97;;
10201;SDS011;5143;42.584;23.164;2023-09-18T09:37:08;13.83;;;11.17;;
10201;SDS011;5143;42.584;23.164;2023-09-18T09:39:37;14.77;;;9.77;;
10201;SDS011;5143;42.584;23.164;2023-09-18T09:42:15;12.10;;;10.70;;
10201;SDS011;5143;42.584;23.164;2023-09-18T09:44:54;12.23;;;9.70;;
10201;SDS011;5143;42.584;23.164;2023-09-18T09:47:31;15.37;;;9.77;;
10201;SDS011;5143;42.584;23.164;2023-09-18T09:50:01;16.03;;;9.97;;
10201;SDS011;5143;42.584;23.164;2023-09-18T09:52:33;11.53;;;9.50;;
10201;SDS011;5143;42.584;23.164;2023-09-18T09:55:01;12.17;;;9.77;;
10201;SDS011;5143;42.584;23.164;2023-09-18T09:57:30;17.20;;;10.17;;
10201;SDS011;5143;42.584;23.164;2023-09-18T10:00:02;9.53;;;8.30;;
10201;SDS011;5143;42.584;23.164;2023-09-18T10:02:39;11.53;;;9.00;;
10201;SDS011;5143;42.584;23.164;2023-09-18T10:05:06;14.17;;;10.00;;
10201;SDS011;5143;42.584;23.164;2023-09-18T10:07:33;12.13;;;9.63;;
10201;SDS011;5143;42.584;23.164;2023-09-18T10:10:04;10.27;;;8.97;;
10201;SDS011;5143;42.584;23.164;2023-09-18T10:12:31;9.03;;;8.23;;
10201;SDS011;5143;42.584;23.164;2023-09-18T10:14:58;10.47;;;7.90;;
10201;SDS011;5143;42.584;23.164;2023-09-18T10:17:27;10.57;;;7.30;;
10201;SDS011;5143;42.584;23.164;2023-09-18T10:19:58;9.43;;;8.50;;
10201;SDS011;5143;42.584;23.164;2023-09-18T10:22:42;16.20;;;10.23;;
10201;SDS011;5143;42.584;23.164;2023-09-18T10:25:13;14.23;;;10.73;;
10201;SDS011;5143;42.584;23.164;2023-09-18T10:27:44;8.93;;;8.03;;
10201;SDS011;5143;42.584;23.164;2023-09-18T10:30:14;9.80;;;7.87;;
10201;SDS011;5143;42.584;23.164;2023-09-18T10:32:43;9.00;;;6.77;;
10201;SDS011;5143;42.584;23.164;2023-09-18T10:35:13;9.70;;;6.37;;
10201;SDS011;5143;42.584;23.164;2023-09-18T10:37:41;11.80;;;5.90;;
10201;SDS011;5143;42.584;23.164;2023-09-18T10:40:08;10.23;;;6.90;;
10201;SDS011;5143;42.584;23.164;2023-09-18T10:42:38;8.47;;;6.63;;
10201;SDS011;5143;42.584;23.164;2023-09-18T10:45:05;8.63;;;6.00;;
10201;SDS011;5143;42.584;23.164;2023-09-18T10:47:35;6.67;;;6.07;;
10201;SDS011;5143;42.584;23.164;2023-09-18T10:50:03;11.53;;;7.63;;
10201;SDS011;5143;42.584;23.164;2023-09-18T10:52:32;7.60;;;6.80;;
10201;SDS011;5143;42.584;23.164;2023-09-18T10:55:00;11.43;;;7.63;;
10201;SDS011;5143;42.584;23.164;2023-09-18T10:57:28;10.33;;;7.57;;
10201;SDS011;5143;42.584;23.164;2023-09-18T11:00:02;12.47;;;6.70;;
10201;SDS011;5143;42.584;23.164;2023-09-18T11:02:39;7.37;;;5.70;;
10201;SDS011;5143;42.584;23.164;2023-09-18T11:05:06;7.90;;;5.57;;
10201;SDS011;5143;42.584;23.164;2023-09-18T11:07:33;9.93;;;6.60;;
10201;SDS011;5143;42.584;23.164;2023-09-18T11:10:00;6.63;;;5.97;;
10201;SDS011;5143;42.584;23.164;2023-09-18T11:12:56;9.33;;;7.63;;
10201;SDS011;5143;42.584;23.164;2023-09-18T11:15:34;10.20;;;6.53;;
10201;SDS011;5143;42.584;23.164;2023-09-18T11:18:01;13.40;;;7.90;;
10201;SDS011;5143;42.584;23.164;2023-09-18T11:20:29;7.20;;;6.50;;
10201;SDS011;5143;42.584;23.164;2023-09-18T11:22:56;8.10;;;7.30;;
10201;SDS011;5143;42.584;23.164;2023-09-18T11:25:29;7.03;;;6.33;;
10201;SDS011;5143;42.584;23.164;2023-09-18T11:27:59;9.30;;;7.20;;
10201;SDS011;5143;42.584;23.164;2023-09-18T11:30:27;6.67;;;5.97;;
10201;SDS011;5143;42.584;23.164;2023-09-18T11:32:55;8.00;;;5.57;;
10201;SDS011;5143;42.584;23.164;2023-09-18T11:35:22;6.53;;;5.83;;
10201;SDS011;5143;42.584;23.164;2023-09-18T11:38:02;8.03;;;5.10;;
10201;SDS011;5143;42.584;23.164;2023-09-18T11:40:32;7.13;;;6.33;;
10201;SDS011;5143;42.584;23.164;2023-09-18T11:43:19;8.00;;;6.40;;
10201;SDS011;5143;42.584;23.164;2023-09-18T11:45:50;6.50;;;5.90;;
10201;SDS011;5143;42.584;23.164;2023-09-18T11:48:20;6.67;;;4.57;;
10201;SDS011;5143;42.584;23.164;2023-09-18T11:50:48;5.97;;;3.87;;
10201;SDS011;5143;42.584;23.164;2023-09-18T11:53:16;5.00;;;3.47;;
10201;SDS011;5143;42.584;23.164;2023-09-18T11:55:44;6.30;;;3.77;;
10201;SDS011;5143;42.584;23.164;2023-09-18T11:58:11;3.87;;;3.47;;
10201;SDS011;5143;42.584;23.164;2023-09-18T12:00:39;4.53;;;3.83;;
10201;SDS011;5143;42.584;23.164;2023-09-18T12:03:20;4.23;;;3.70;;
10201;SDS011;5143;42.584;23.164;2023-09-18T12:05:54;7.03;;;4.63;;
10201;SDS011;5143;42.584;23.164;2023-09-18T12:08:22;4.70;;;4.30;;
10201;SDS011;5143;42.584;23.164;2023-09-18T12:10:51;5.30;;;3.93;;
10201;SDS011;5143;42.584;23.164;2023-09-18T12:13:18;4.70;;;4.17;;
10201;SDS011;5143;42.584;23.164;2023-09-18T12:15:45;6.10;;;3.30;;
10201;SDS011;5143;42.584;23.164;2023-09-18T12:18:13;4.17;;;3.70;;
10201;SDS011;5143;42.584;23.164;2023-09-18T12:20:48;6.77;;;4.03;;
10201;SDS011;5143;42.584;23.164;2023-09-18T12:23:15;4.20;;;3.30;;
10201;SDS011;5143;42.584;23.164;2023-09-18T12:25:44;4.40;;;3.47;;
10201;SDS011;5143;42.584;23.164;2023-09-18T12:28:13;5.03;;;3.23;;
10201;SDS011;5143;42.584;23.164;2023-09-18T12:30:41;4.23;;;3.03;;
10201;SDS011;5143;42.584;23.164;2023-09-18T12:33:08;4.43;;;3.20;;
10201;SDS011;5143;42.584;23.164;2023-09-18T12:35:35;3.30;;;3.00;;
10201;SDS011;5143;42.584;23.164;2023-09-18T12:38:12;4.03;;;3.00;;
10201;SDS011;5143;42.584;23.164;2023-09-18T12:40:40;3.93;;;2.93;;
10201;SDS011;5143;42.584;23.164;2023-09-18T12:43:09;3.70;;;2.77;;
10201;SDS011;5143;42.584;23.164;2023-09-18T12:45:36;4.03;;;3.13;;
10201;SDS011;5143;42.584;23.164;2023-09-18T12:48:05;6.57;;;3.17;;
10201;SDS011;5143;42.584;23.164;2023-09-18T12:50:32;3.23;;;2.67;;
10201;SDS011;5143;42.584;23.164;2023-09-18T12:53:08;5.17;;;3.10;;
10201;SDS011;5143;42.584;23.164;2023-09-18T12:55:36;4.67;;;3.37;;
10201;SDS011;5143;42.584;23.164;2023-09-18T12:58:03;4.43;;;3.13;;
10201;SDS011;5143;42.584;23.164;2023-09-18T13:00:33;4.53;;;2.97;;
10201;SDS011;5143;42.584;23.164;2023-09-18T13:03:00;3.17;;;2.87;;
10201;SDS011;5143;42.584;23.164;2023-09-18T13:05:29;6.73;;;3.30;;
10201;SDS011;5143;42.584;23.164;2023-09-18T13:08:01;3.90;;;3.20;;
10201;SDS011;5143;42.584;23.164;2023-09-18T13:10:30;3.90;;;3.20;;
10201;SDS011;5143;42.584;23.164;2023-09-18T13:13:07;4.93;;;2.63;;
10201;SDS011;5143;42.584;23.164;2023-09-18T13:15:41;6.10;;;3.00;;
10201;SDS011;5143;42.584;23.164;2023-09-18T13:18:10;3.30;;;2.60;;
10201;SDS011;5143;42.584;23.164;2023-09-18T13:20:38;5.27;;;3.20;;
10201;SDS011;5143;42.584;23.164;2023-09-18T13:23:05;4.43;;;3.50;;
10201;SDS011;5143;42.584;23.164;2023-09-18T13:25:34;3.53;;;2.93;;
10201;SDS011;5143;42.584;23.164;2023-09-18T13:28:03;6.90;;;3.50;;
10201;SDS011;5143;42.584;23.164;2023-09-18T13:30:31;5.00;;;3.20;;
10201;SDS011;5143;42.584;23.164;2023-09-18T13:33:02;3.47;;;3.17;;
10201;SDS011;5143;42.584;23.164;2023-09-18T13:35:31;5.47;;;2.77;;
10201;SDS011;5143;42.584;23.164;2023-09-18T13:37:58;4.37;;;3.10;;
10201;SDS011;5143;42.584;23.164;2023-09-18T13:40:24;3.87;;;3.00;;
10201;SDS011;5143;42.584;23.164;2023-09-18T13:42:53;3.57;;;3.20;;
10201;SDS011;5143;42.584;23.164;2023-09-18T13:45:19;4.27;;;3.10;;
10201;SDS011;5143;42.584;23.164;2023-09-18T13:47:46;4.27;;;3.47;;
10201;SDS011;5143;42.584;23.164;2023-09-18T13:50:14;3.00;;;2.60;;
10201;SDS011;5143;42.584;23.164;2023-09-18T13:52:41;5.20;;;3.33;;
10201;SDS011;5143;42.584;23.164;2023-09-18T13:55:08;4.73;;;3.13;;
10201;SDS011;5143;42.584;23.164;2023-09-18T13:57:35;3.93;;;2.93;;
10201;SDS011;5143;42.584;23.164;2023-09-18T14:00:04;5.90;;;3.20;;
10201;SDS011;5143;42.584;23.164;2023-09-18T14:02:32;3.53;;;3.03;;
10201;SDS011;5143;42.584;23.164;2023-09-18T14:04:59;3.50;;;2.50;;
10201;SDS011;5143;42.584;23.164;2023-09-18T14:07:26;3.30;;;3.00;;
10201;SDS011;5143;42.584;23.164;2023-09-18T14:09:53;3.70;;;2.63;;
10201;SDS011;5143;42.584;23.164;2023-09-18T14:12:19;4.13;;;3.23;;
10201;SDS011;5143;42.584;23.164;2023-09-18T14:14:47;3.30;;;2.80;;
10201;SDS011;5143;42.584;23.164;2023-09-18T14:17:15;3.80;;;3.03;;
10201;SDS011;5143;42.584;23.164;2023-09-18T14:19:46;5.50;;;3.07;;
10201;SDS011;5143;42.584;23.164;2023-09-18T14:22:13;6.47;;;3.00;;
10201;SDS011;5143;42.584;23.164;2023-09-18T14:24:40;3.93;;;2.87;;
10201;SDS011;5143;42.584;23.164;2023-09-18T14:27:07;3.97;;;3.00;;
10201;SDS011;5143;42.584;23.164;2023-09-18T14:29:34;3.47;;;3.17;;
10201;SDS011;5143;42.584;23.164;2023-09-18T14:32:01;3.97;;;3.37;;
10201;SDS011;5143;42.584;23.164;2023-09-18T14:34:30;4.50;;;3.43;;
10201;SDS011;5143;42.584;23.164;2023-09-18T14:37:00;4.67;;;3.60;;
10201;SDS011;5143;42.584;23.164;2023-09-18T14:39:28;6.10;;;3.80;;